WetterOnline ( https://www.wetteronline.de )

Wetter aktuell Satenas

Aktuelles Wetter: Satenas (54m)

6-stündlich | Neueste Meldungen
Ortszeit Temperatur Wetter
Mi, 19.02. 1:00 3.5° C bedeckt
Di, 18.02. 19:00 5.1° C fast wolkenlos
Di, 18.02. 13:00 6.3° C wolkig
Di, 18.02. 7:00 5.7° C bedeckt
Di, 18.02. 1:00 6.4° C bewölkt
Mo, 17.02. 19:00 5.8° C bedeckt
Mo, 17.02. 13:00 5.5° C leichte Schauer
Mo, 17.02. 7:00 4.9° C leicht bewölkt
Ortszeit Temperatur Wetter
Mi, 19.02. 1:20 3° C bedeckt
Mi, 19.02. 1:00 3.5° C bedeckt
Mi, 19.02. 0:50 4° C bedeckt
Mi, 19.02. 0:20 4° C bedeckt
Mi, 19.02. 0:00 3.7° C bewölkt
Di, 18.02. 23:50 4° C bedeckt
Di, 18.02. 23:20 4° C bewölkt
Di, 18.02. 23:00 4.4° C leicht bewölkt
Di, 18.02. 22:20 5° C leicht bewölkt
Di, 18.02. 22:00 4.7° C wolkenlos
Ortszeit Relative Feuchte Sichtweite
Mi, 19.02. 1:00 97% 23 km
Di, 18.02. 19:00 87% 22 km
Di, 18.02. 13:00 88% 17 km
Di, 18.02. 7:00 93% 16 km
Di, 18.02. 1:00 92% 12 km
Mo, 17.02. 19:00 96% 7 km
Mo, 17.02. 13:00 94% 13 km
Mo, 17.02. 7:00 91% 17 km
Ortszeit Relative Feuchte Sichtweite
Mi, 19.02. 1:20 100% >10 km
Mi, 19.02. 1:00 97% 23 km
Mi, 19.02. 0:50 93% >10 km
Mi, 19.02. 0:20 93% >10 km
Mi, 19.02. 0:00 96% 29 km
Di, 18.02. 23:50 93% >10 km
Di, 18.02. 23:20 93% >10 km
Di, 18.02. 23:00 92% 25 km
Di, 18.02. 22:20 87% >10 km
Di, 18.02. 22:00 90% 24 km
Ortszeit Niederschlagsmenge Niederschlagsart
Mi, 19.02. 1:00 0.0 l/m2 -
Di, 18.02. 19:00 0.1 l/m2 in 12 Std. -
Di, 18.02. 13:00 0.1 l/m2 in 6 Std. Schauer
Di, 18.02. 7:00 0.1 l/m2 in 12 Std. -
Di, 18.02. 1:00 0.1 l/m2 in 6 Std. Schauer
Mo, 17.02. 19:00 1 l/m2 in 12 Std. Regenschauer
Mo, 17.02. 13:00 0.2 l/m2 in 6 Std. Schauer
Mo, 17.02. 7:00 0.5 l/m2 in 12 Std. -
Ortszeit Niederschlagsmenge Niederschlagsart
Mi, 19.02. 1:20 keine Meldung -
Mi, 19.02. 1:00 0.0 l/m2 in 1 Std. -
Mi, 19.02. 0:50 keine Meldung -
Mi, 19.02. 0:20 keine Meldung -
Mi, 19.02. 0:00 0.0 l/m2 in 1 Std. -
Di, 18.02. 23:50 keine Meldung -
Di, 18.02. 23:20 keine Meldung -
Di, 18.02. 23:00 0.0 l/m2 in 1 Std. -
Di, 18.02. 22:20 keine Meldung -
Di, 18.02. 22:00 0.0 l/m2 in 1 Std. -
Ortszeit Stärke Spitze Richtung
km/h Bft. km/h Grad Sektor
Mi, 19.02. 1:00 25 4 40 210° SW
Di, 18.02. 19:00 43 6 58 240° SW
Di, 18.02. 13:00 40 6 50 240° SW
Di, 18.02. 7:00 43 6 65 240° SW
Di, 18.02. 1:00 32 5 - 230° SW
Mo, 17.02. 19:00 47 6 76 230° SW
Mo, 17.02. 13:00 54 7 79 220° SW
Mo, 17.02. 7:00 43 6 79 230° SW
Ortszeit Stärke Spitze Richtung
km/h Bft. km/h Grad Sektor
Mi, 19.02. 1:20 24 4 - 210° SW
Mi, 19.02. 1:00 25 4 40 210° SW
Mi, 19.02. 0:50 24 4 - 210° SW
Mi, 19.02. 0:20 30 5 - 220° SW
Mi, 19.02. 0:00 29 5 43 210° SW
Di, 18.02. 23:50 30 5 - 210° SW
Di, 18.02. 23:20 30 5 - 230° SW
Di, 18.02. 23:00 32 5 47 230° SW
Di, 18.02. 22:20 35 5 - 230° SW
Di, 18.02. 22:00 32 5 47 230° SW
Ortszeit Untergrenze Bedeckung Gattung
total tief tief mittel hoch
Mi, 19.02. 1:00 360 m 8/8 8/8 - - -
Di, 18.02. 19:00 750 m 1/8 1/8 - - -
Di, 18.02. 13:00 600 m 6/8 4/8 Cu - Ci
Di, 18.02. 7:00 480 m 8/8 7/8 Cu - -
Di, 18.02. 1:00 600 m 7/8 7/8 - - -
Mo, 17.02. 19:00 480 m 8/8 8/8 - - -
Mo, 17.02. 13:00 450 m 8/8 8/8 Cu - -
Mo, 17.02. 7:00 660 m 4/8 3/8 Sc - -
Ortszeit Bedeckungsgrad in Achtel und Wolkenuntergrenze
Mi, 19.02. 1:20 8(360m)
Mi, 19.02. 1:00 7(360m) 8(1110m)
Mi, 19.02. 0:50 5-7(360m) 5-7(870m) 8(1440m)
Mi, 19.02. 0:20 5-7(360m) 8(510m)
Mi, 19.02. 0:00 4(420m) 6(540m) 7(1230m)
Di, 18.02. 23:50 3-4(420m) 5-7(540m) 8(1470m)
Di, 18.02. 23:20 3-4(480m) 5-7(600m)
Di, 18.02. 23:00 1(510m)
Di, 18.02. 22:20 1-2(630m)
Di, 18.02. 22:00 keine Wolken
Ortszeit Luftdruck NN (hPa) Tendenz (hPa in 3 Std.)
Mi, 19.02. 1:00 999 0,0
Di, 18.02. 19:00 999 + 0,5
Di, 18.02. 13:00 997 + 1,0
Di, 18.02. 7:00 996 + 0,8
Di, 18.02. 1:00 995 + 1,9
Mo, 17.02. 19:00 990 + 1,7
Mo, 17.02. 13:00 989 + 1,8
Mo, 17.02. 7:00 986 + 1,6
Ortszeit Luftdruck NN (hPa) Tendenz (hPa in 3 Std.)
Mi, 19.02. 1:20 998 keine Meldung
Mi, 19.02. 1:00 999 0,0
Mi, 19.02. 0:50 999 keine Meldung
Mi, 19.02. 0:20 999 keine Meldung
Mi, 19.02. 0:00 999 + 0,4
Di, 18.02. 23:50 999 keine Meldung
Di, 18.02. 23:20 999 keine Meldung
Di, 18.02. 23:00 999 + 0,3
Di, 18.02. 22:20 998 keine Meldung
Di, 18.02. 22:00 999 + 0,5
Ortszeit Schneehöhe (cm)
Mi, 19.02. 1:00 -
Di, 18.02. 19:00 -
Di, 18.02. 13:00 -
Di, 18.02. 7:00 -
Di, 18.02. 1:00 -
Mo, 17.02. 19:00 -
Mo, 17.02. 13:00 -
Mo, 17.02. 7:00 -
Ortszeit Schneehöhe (cm)
Mi, 19.02. 1:20 -
Mi, 19.02. 1:00 -
Mi, 19.02. 0:50 -
Mi, 19.02. 0:20 -
Mi, 19.02. 0:00 -
Di, 18.02. 23:50 -
Di, 18.02. 23:20 -
Di, 18.02. 23:00 -
Di, 18.02. 22:20 -
Di, 18.02. 22:00 -
Link zu dieser Seite / Seite empfehlen

Das Wetter in ...